createdAt,value
2022-09-17T00:02:35.172Z,51.25
2022-09-17T00:07:37.024Z,51.06
2022-09-17T00:12:38.945Z,51.01
2022-09-17T00:17:41.951Z,51.10
2022-09-17T00:22:43.783Z,50.97
2022-09-17T00:27:46.276Z,50.85
2022-09-17T00:32:48.066Z,50.89
2022-09-17T00:37:49.941Z,50.78
2022-09-17T00:42:53.480Z,50.84
2022-09-17T00:48:06.489Z,50.65
2022-09-17T00:53:12.483Z,50.25
2022-09-17T00:58:16.917Z,50.48
2022-09-17T01:03:19.148Z,50.27
2022-09-17T01:08:23.841Z,50.40
2022-09-17T01:13:43.527Z,50.32
2022-09-17T01:19:09.087Z,50.40
2022-09-17T01:24:13.738Z,50.91
2022-09-17T01:29:36.637Z,50.89
2022-09-17T01:34:56.634Z,50.57
2022-09-17T01:40:11.776Z,50.93
2022-09-17T01:45:31.626Z,50.76
2022-09-17T01:50:39.692Z,50.67
2022-09-17T01:55:45.815Z,51.05
2022-09-17T02:00:53.434Z,51.02
2022-09-17T02:06:13.144Z,50.72
2022-09-17T02:11:17.218Z,50.77
2022-09-17T02:16:24.715Z,51.08
2022-09-17T02:21:38.750Z,50.95
2022-09-17T02:26:46.477Z,51.14
2022-09-17T02:31:48.358Z,51.33
2022-09-17T02:36:50.291Z,52.06
2022-09-17T02:41:52.030Z,52.18
2022-09-17T02:47:15.114Z,52.23
2022-09-17T02:52:32.875Z,52.06
2022-09-17T02:57:45.787Z,52.10
2022-09-17T03:02:53.574Z,52.31
2022-09-17T03:07:57.285Z,51.92
2022-09-17T03:12:59.553Z,52.47
2022-09-17T03:18:02.039Z,52.67
2022-09-17T03:23:03.927Z,52.87
2022-09-17T03:28:05.734Z,53.30
2022-09-17T03:33:07.523Z,53.07
2022-09-17T03:38:09.344Z,53.38
2022-09-17T03:43:11.406Z,53.62
2022-09-17T03:48:13.179Z,53.99
2022-09-17T03:53:15.510Z,54.22
2022-09-17T03:58:17.394Z,54.35
2022-09-17T04:03:19.825Z,54.23
2022-09-17T04:08:22.073Z,54.69
2022-09-17T04:13:23.941Z,54.94
2022-09-17T04:18:25.768Z,55.07
2022-09-17T04:23:27.577Z,55.59
2022-09-17T04:28:29.570Z,55.56
2022-09-17T04:33:31.379Z,56.07
2022-09-17T04:38:33.699Z,56.46
2022-09-17T04:43:35.693Z,56.60
2022-09-17T04:48:37.713Z,57.33
2022-09-17T04:53:39.516Z,57.81
2022-09-17T04:58:41.852Z,57.65
2022-09-17T05:03:43.683Z,57.77
2022-09-17T05:08:45.508Z,57.75
2022-09-17T05:13:47.380Z,58.13
2022-09-17T05:18:51.271Z,58.51
2022-09-17T05:23:53.133Z,58.59
2022-09-17T05:28:55.133Z,59.30
2022-09-17T05:33:58.488Z,59.70
2022-09-17T05:39:00.335Z,59.77
2022-09-17T05:44:02.338Z,59.70
2022-09-17T05:49:05.106Z,59.72
2022-09-17T05:54:07.596Z,59.83
2022-09-17T05:59:09.417Z,60.05
2022-09-17T06:04:11.543Z,59.89
2022-09-17T06:09:13.882Z,60.01
2022-09-17T06:14:16.422Z,60.42
2022-09-17T06:19:18.229Z,60.14
2022-09-17T06:24:20.050Z,60.12
2022-09-17T06:29:21.880Z,59.62
2022-09-17T06:34:23.673Z,59.43
2022-09-17T06:39:25.476Z,59.71
2022-09-17T06:44:27.483Z,59.38
2022-09-17T06:49:31.201Z,59.77
2022-09-17T06:54:33.602Z,60.19
2022-09-17T06:59:35.450Z,59.68
2022-09-17T07:04:37.482Z,59.50
2022-09-17T07:09:39.320Z,59.48
2022-09-17T07:14:41.281Z,59.44
2022-09-17T07:19:43.243Z,59.79
2022-09-17T07:24:45.105Z,60.28
2022-09-17T07:29:46.908Z,60.51
2022-09-17T07:34:49.370Z,60.96
2022-09-17T07:39:53.331Z,61.43
2022-09-17T07:44:58.650Z,61.07
2022-09-17T07:50:03.076Z,60.77
2022-09-17T07:55:05.586Z,60.67
2022-09-17T08:00:08.322Z,61.09
2022-09-17T08:05:15.679Z,61.25
2022-09-17T08:10:21.770Z,61.32
2022-09-17T08:15:24.105Z,61.35
2022-09-17T08:20:26.980Z,60.82
2022-09-17T08:25:28.943Z,61.17
2022-09-17T08:30:31.950Z,60.64
2022-09-17T08:35:33.733Z,60.47
2022-09-17T08:40:46.054Z,60.34
2022-09-17T08:45:54.698Z,60.17
2022-09-17T08:51:02.428Z,59.60
2022-09-17T08:56:16.419Z,59.83
2022-09-17T09:01:24.515Z,59.74
2022-09-17T09:06:32.872Z,58.68
2022-09-17T09:11:35.059Z,58.20
2022-09-17T09:16:41.622Z,57.68
2022-09-17T09:22:20.907Z,57.35
2022-09-17T09:27:32.930Z,57.21
2022-09-17T09:32:49.686Z,56.64
2022-09-17T09:38:07.484Z,55.85
2022-09-17T09:43:19.651Z,55.08
2022-09-17T09:48:35.202Z,54.65
2022-09-17T09:53:43.517Z,54.47
2022-09-17T09:58:45.360Z,53.82
2022-09-17T10:03:48.556Z,53.44
2022-09-17T10:08:50.305Z,52.83
2022-09-17T10:13:52.265Z,52.36
2022-09-17T10:19:06.358Z,51.89
2022-09-17T10:24:24.384Z,51.57
2022-09-17T10:29:26.717Z,51.55
2022-09-17T10:34:31.515Z,52.21
2022-09-17T10:39:38.626Z,51.96
2022-09-17T10:44:55.763Z,52.24
2022-09-17T10:50:01.492Z,53.25
2022-09-17T10:55:23.542Z,54.05
2022-09-17T11:00:28.818Z,54.78
2022-09-17T11:06:14.510Z,54.49
2022-09-17T11:11:35.277Z,54.54
2022-09-17T11:16:38.466Z,54.30
2022-09-17T11:21:49.210Z,54.45
2022-09-17T11:27:12.215Z,54.19
2022-09-17T11:32:45.031Z,54.69
2022-09-17T11:37:59.756Z,55.58
2022-09-17T11:43:29.281Z,55.41
2022-09-17T11:49:12.808Z,54.31
2022-09-17T11:54:20.832Z,54.32
2022-09-17T11:59:41.273Z,54.39
2022-09-17T12:05:06.952Z,54.96
2022-09-17T12:10:32.150Z,55.52
2022-09-17T12:15:38.686Z,55.73
2022-09-17T12:20:45.710Z,56.04
2022-09-17T12:26:19.044Z,55.62
2022-09-17T12:31:49.847Z,55.26
2022-09-17T12:37:11.089Z,55.12
2022-09-17T12:42:21.666Z,55.27
2022-09-17T12:47:35.318Z,55.22
2022-09-17T12:52:58.963Z,54.80
2022-09-17T12:58:30.782Z,54.76
2022-09-17T13:03:35.793Z,54.28
2022-09-17T13:08:40.395Z,52.83
2022-09-17T13:14:00.687Z,52.27
2022-09-17T13:19:42.578Z,52.01
2022-09-17T13:24:49.197Z,51.79
2022-09-17T13:29:54.101Z,51.92
2022-09-17T13:35:01.621Z,51.03
2022-09-17T13:40:06.982Z,51.13
2022-09-17T13:45:16.668Z,50.00
2022-09-17T13:50:35.777Z,49.32
2022-09-17T13:55:41.105Z,48.22
2022-09-17T14:01:01.672Z,46.85
2022-09-17T14:06:04.052Z,47.34
2022-09-17T14:11:26.877Z,46.70
2022-09-17T14:16:38.729Z,45.62
2022-09-17T14:21:41.238Z,45.41
2022-09-17T14:26:52.610Z,45.67
2022-09-17T14:31:55.923Z,45.71
2022-09-17T14:36:59.201Z,44.69
2022-09-17T14:42:01.842Z,43.84
2022-09-17T14:47:10.527Z,43.21
2022-09-17T14:52:26.399Z,43.05
2022-09-17T14:57:29.831Z,43.24
2022-09-17T15:02:43.539Z,43.87
2022-09-17T15:07:46.561Z,43.97
2022-09-17T15:12:50.629Z,44.21
2022-09-17T15:17:53.943Z,44.39
2022-09-17T15:23:18.080Z,45.13
2022-09-17T15:28:40.295Z,44.93
2022-09-17T15:33:42.888Z,44.89
2022-09-17T15:38:45.122Z,43.80
2022-09-17T15:43:47.308Z,41.91
2022-09-17T15:48:49.202Z,41.33
2022-09-17T15:53:53.583Z,41.64
2022-09-17T15:58:58.934Z,41.30
2022-09-17T16:04:22.865Z,41.45
2022-09-17T16:09:42.151Z,41.41
2022-09-17T16:14:49.440Z,41.62
2022-09-17T16:19:51.926Z,41.84
2022-09-17T16:24:53.855Z,42.03
2022-09-17T16:30:09.798Z,42.53
2022-09-17T16:35:17.656Z,42.43
2022-09-17T16:40:22.441Z,42.90
2022-09-17T16:45:28.833Z,43.11
2022-09-17T16:50:33.931Z,43.45
2022-09-17T16:55:36.244Z,43.96
2022-09-17T17:00:38.362Z,43.60
2022-09-17T17:05:41.053Z,44.07
2022-09-17T17:10:43.534Z,43.83
2022-09-17T17:15:45.878Z,44.01
2022-09-17T17:20:48.925Z,43.91
2022-09-17T17:25:50.883Z,43.54
2022-09-17T17:30:52.974Z,43.76
2022-09-17T17:35:55.718Z,44.02
2022-09-17T17:41:13.582Z,44.00
2022-09-17T17:46:16.177Z,43.92
2022-09-17T17:51:19.909Z,44.47
2022-09-17T17:56:23.555Z,45.01
2022-09-17T18:01:29.459Z,44.92
2022-09-17T18:06:33.985Z,44.99
2022-09-17T18:11:36.145Z,45.34
2022-09-17T18:16:38.958Z,45.39
2022-09-17T18:21:41.739Z,45.85
2022-09-17T18:26:44.095Z,46.46
2022-09-17T18:31:46.168Z,46.43
2022-09-17T18:36:51.210Z,46.63
2022-09-17T18:41:53.498Z,46.83
2022-09-17T18:46:55.575Z,47.01
2022-09-17T18:51:57.611Z,47.50
2022-09-17T18:56:59.850Z,47.69
2022-09-17T19:02:01.860Z,47.76
2022-09-17T19:07:03.869Z,48.20
2022-09-17T19:12:06.232Z,48.14
2022-09-17T19:17:09.411Z,48.74
2022-09-17T19:22:14.795Z,48.91
2022-09-17T19:27:16.905Z,49.02
2022-09-17T19:32:18.925Z,49.28
2022-09-17T19:37:20.931Z,49.42
2022-09-17T19:42:23.632Z,49.65
2022-09-17T19:47:25.720Z,49.39
2022-09-17T19:52:27.857Z,49.85
2022-09-17T19:57:30.478Z,50.22
2022-09-17T20:02:32.564Z,50.98
2022-09-17T20:07:35.443Z,51.35
2022-09-17T20:12:37.558Z,52.06
2022-09-17T20:17:39.644Z,52.85
2022-09-17T20:22:41.634Z,53.71
2022-09-17T20:27:43.575Z,54.08
2022-09-17T20:32:45.463Z,54.78
2022-09-17T20:43:09.642Z,56.20
2022-09-17T20:48:11.517Z,56.54
2022-09-17T20:53:13.453Z,56.85
2022-09-17T20:58:17.191Z,56.93
2022-09-17T21:03:21.874Z,57.04
2022-09-17T21:08:24.149Z,56.98
2022-09-17T21:13:26.024Z,57.39
2022-09-17T21:18:28.571Z,57.05
2022-09-17T21:23:32.149Z,57.25
2022-09-17T21:28:36.133Z,57.31
2022-09-17T21:33:38.466Z,57.41
2022-09-17T21:38:40.920Z,57.30
2022-09-17T21:43:44.037Z,56.82
2022-09-17T21:48:47.892Z,56.88
2022-09-17T21:53:55.153Z,57.53
2022-09-17T21:58:59.570Z,57.74
2022-09-17T22:04:02.192Z,58.34
2022-09-17T22:09:05.468Z,58.67
2022-09-17T22:14:12.594Z,59.08
2022-09-17T22:19:17.012Z,59.26
2022-09-17T22:24:20.423Z,58.84
2022-09-17T22:29:22.840Z,58.58
2022-09-17T22:34:26.030Z,58.86
2022-09-17T22:39:28.023Z,58.79
2022-09-17T22:44:29.952Z,59.17
2022-09-17T22:49:31.867Z,59.22
2022-09-17T22:54:34.198Z,59.51
2022-09-17T22:59:36.024Z,59.69
2022-09-17T23:04:37.854Z,59.95
2022-09-17T23:09:39.597Z,60.01
2022-09-17T23:14:41.362Z,60.72
2022-09-17T23:19:43.093Z,60.60
2022-09-17T23:24:44.851Z,61.15
2022-09-17T23:29:46.850Z,60.90
2022-09-17T23:34:48.667Z,61.11
2022-09-17T23:39:50.641Z,61.45
2022-09-17T23:44:52.519Z,61.63
2022-09-17T23:49:54.387Z,61.89
2022-09-17T23:54:58.441Z,61.90
